sensor_id;sensor_type;location;lat;lon;timestamp;P1;durP1;ratioP1;P2;durP2;ratioP2
80104;SDS011;69865;47.648;19.030;2023-08-12T00:00:00;6.33;;;6.33;;
80104;SDS011;69865;47.648;19.030;2023-08-12T00:00:32;6.50;;;6.50;;
80104;SDS011;69865;47.648;19.030;2023-08-12T00:01:04;6.63;;;6.63;;
80104;SDS011;69865;47.648;19.030;2023-08-12T00:01:36;6.03;;;6.03;;
80104;SDS011;69865;47.648;19.030;2023-08-12T00:02:08;6.33;;;6.33;;
80104;SDS011;69865;47.648;19.030;2023-08-12T00:02:40;6.23;;;6.23;;
80104;SDS011;69865;47.648;19.030;2023-08-12T00:03:13;6.33;;;6.33;;
80104;SDS011;69865;47.648;19.030;2023-08-12T00:03:45;6.27;;;6.27;;
80104;SDS011;69865;47.648;19.030;2023-08-12T00:04:17;6.70;;;6.70;;
80104;SDS011;69865;47.648;19.030;2023-08-12T00:04:49;6.27;;;6.27;;
80104;SDS011;69865;47.648;19.030;2023-08-12T00:05:21;6.67;;;6.67;;
80104;SDS011;69865;47.648;19.030;2023-08-12T00:05:53;7.03;;;7.03;;
80104;SDS011;69865;47.648;19.030;2023-08-12T00:06:26;6.80;;;6.80;;
80104;SDS011;69865;47.648;19.030;2023-08-12T00:06:58;5.87;;;5.87;;
80104;SDS011;69865;47.648;19.030;2023-08-12T00:07:30;6.57;;;6.57;;
80104;SDS011;69865;47.648;19.030;2023-08-12T00:08:02;6.30;;;6.30;;
80104;SDS011;69865;47.648;19.030;2023-08-12T00:08:34;6.43;;;6.43;;
80104;SDS011;69865;47.648;19.030;2023-08-12T00:09:06;6.10;;;6.10;;
80104;SDS011;69865;47.648;19.030;2023-08-12T00:09:38;6.60;;;6.60;;
80104;SDS011;69865;47.648;19.030;2023-08-12T00:10:11;6.73;;;6.73;;
80104;SDS011;69865;47.648;19.030;2023-08-12T00:10:44;6.67;;;6.67;;
80104;SDS011;69865;47.648;19.030;2023-08-12T00:11:17;6.00;;;6.00;;
80104;SDS011;69865;47.648;19.030;2023-08-12T00:11:49;6.27;;;6.27;;
80104;SDS011;69865;47.648;19.030;2023-08-12T00:12:21;5.73;;;5.73;;
80104;SDS011;69865;47.648;19.030;2023-08-12T00:12:54;6.60;;;6.60;;
80104;SDS011;69865;47.648;19.030;2023-08-12T00:13:26;6.97;;;6.97;;
80104;SDS011;69865;47.648;19.030;2023-08-12T00:13:58;6.60;;;6.60;;
80104;SDS011;69865;47.648;19.030;2023-08-12T00:14:30;6.80;;;6.80;;
80104;SDS011;69865;47.648;19.030;2023-08-12T00:15:02;6.47;;;6.47;;
80104;SDS011;69865;47.648;19.030;2023-08-12T00:15:35;6.57;;;6.57;;
80104;SDS011;69865;47.648;19.030;2023-08-12T00:16:07;5.97;;;5.97;;
80104;SDS011;69865;47.648;19.030;2023-08-12T00:16:39;5.87;;;5.87;;
80104;SDS011;69865;47.648;19.030;2023-08-12T00:17:11;6.10;;;6.10;;
80104;SDS011;69865;47.648;19.030;2023-08-12T00:17:43;6.33;;;6.33;;
80104;SDS011;69865;47.648;19.030;2023-08-12T00:18:15;6.10;;;6.10;;
80104;SDS011;69865;47.648;19.030;2023-08-12T00:18:47;6.13;;;6.13;;
80104;SDS011;69865;47.648;19.030;2023-08-12T00:19:19;6.43;;;6.43;;
80104;SDS011;69865;47.648;19.030;2023-08-12T00:19:52;6.43;;;6.43;;
80104;SDS011;69865;47.648;19.030;2023-08-12T00:20:24;6.50;;;6.50;;
80104;SDS011;69865;47.648;19.030;2023-08-12T00:20:56;6.43;;;6.43;;
80104;SDS011;69865;47.648;19.030;2023-08-12T00:21:28;5.83;;;5.83;;
80104;SDS011;69865;47.648;19.030;2023-08-12T00:22:00;6.57;;;6.57;;
80104;SDS011;69865;47.648;19.030;2023-08-12T00:22:32;6.73;;;6.73;;
80104;SDS011;69865;47.648;19.030;2023-08-12T00:23:04;6.13;;;6.13;;
80104;SDS011;69865;47.648;19.030;2023-08-12T00:23:37;5.67;;;5.67;;
80104;SDS011;69865;47.648;19.030;2023-08-12T00:24:10;5.77;;;5.77;;
80104;SDS011;69865;47.648;19.030;2023-08-12T00:24:42;5.93;;;5.93;;
80104;SDS011;69865;47.648;19.030;2023-08-12T00:25:14;6.07;;;6.07;;
80104;SDS011;69865;47.648;19.030;2023-08-12T00:25:48;6.10;;;6.10;;
80104;SDS011;69865;47.648;19.030;2023-08-12T00:26:22;6.53;;;6.53;;
80104;SDS011;69865;47.648;19.030;2023-08-12T00:26:54;6.10;;;6.10;;
80104;SDS011;69865;47.648;19.030;2023-08-12T00:27:26;6.27;;;6.27;;
80104;SDS011;69865;47.648;19.030;2023-08-12T00:27:59;7.27;;;7.27;;
80104;SDS011;69865;47.648;19.030;2023-08-12T00:28:31;6.60;;;6.60;;
80104;SDS011;69865;47.648;19.030;2023-08-12T00:29:03;6.47;;;6.47;;
80104;SDS011;69865;47.648;19.030;2023-08-12T00:29:35;6.03;;;6.03;;
80104;SDS011;69865;47.648;19.030;2023-08-12T00:30:08;6.20;;;6.20;;
80104;SDS011;69865;47.648;19.030;2023-08-12T00:30:40;6.40;;;6.40;;
80104;SDS011;69865;47.648;19.030;2023-08-12T00:31:12;6.37;;;6.37;;
80104;SDS011;69865;47.648;19.030;2023-08-12T00:31:44;6.33;;;6.33;;
80104;SDS011;69865;47.648;19.030;2023-08-12T00:32:16;5.97;;;5.97;;
80104;SDS011;69865;47.648;19.030;2023-08-12T00:32:48;6.23;;;6.23;;
80104;SDS011;69865;47.648;19.030;2023-08-12T00:33:20;6.10;;;6.10;;
80104;SDS011;69865;47.648;19.030;2023-08-12T00:33:52;6.93;;;6.93;;
80104;SDS011;69865;47.648;19.030;2023-08-12T00:34:24;6.03;;;6.03;;
80104;SDS011;69865;47.648;19.030;2023-08-12T00:34:57;5.90;;;5.90;;
80104;SDS011;69865;47.648;19.030;2023-08-12T00:35:29;6.77;;;6.77;;
80104;SDS011;69865;47.648;19.030;2023-08-12T00:36:01;6.67;;;6.67;;
80104;SDS011;69865;47.648;19.030;2023-08-12T00:36:33;6.07;;;6.07;;
80104;SDS011;69865;47.648;19.030;2023-08-12T00:37:05;6.53;;;6.53;;
80104;SDS011;69865;47.648;19.030;2023-08-12T00:37:37;6.07;;;6.07;;
80104;SDS011;69865;47.648;19.030;2023-08-12T00:38:09;6.73;;;6.73;;
80104;SDS011;69865;47.648;19.030;2023-08-12T00:38:41;7.17;;;7.17;;
80104;SDS011;69865;47.648;19.030;2023-08-12T00:39:13;6.80;;;6.80;;
80104;SDS011;69865;47.648;19.030;2023-08-12T00:39:45;6.63;;;6.63;;
80104;SDS011;69865;47.648;19.030;2023-08-12T00:40:18;6.87;;;6.87;;
80104;SDS011;69865;47.648;19.030;2023-08-12T00:40:50;6.73;;;6.73;;
80104;SDS011;69865;47.648;19.030;2023-08-12T00:41:23;6.37;;;6.37;;
80104;SDS011;69865;47.648;19.030;2023-08-12T00:41:55;6.97;;;6.97;;
80104;SDS011;69865;47.648;19.030;2023-08-12T00:42:28;7.13;;;7.13;;
80104;SDS011;69865;47.648;19.030;2023-08-12T00:43:00;6.93;;;6.93;;
80104;SDS011;69865;47.648;19.030;2023-08-12T00:43:32;6.40;;;6.40;;
80104;SDS011;69865;47.648;19.030;2023-08-12T00:44:04;6.53;;;6.53;;
80104;SDS011;69865;47.648;19.030;2023-08-12T00:44:36;6.47;;;6.47;;
80104;SDS011;69865;47.648;19.030;2023-08-12T00:45:09;6.03;;;6.03;;
80104;SDS011;69865;47.648;19.030;2023-08-12T00:45:42;6.20;;;6.20;;
80104;SDS011;69865;47.648;19.030;2023-08-12T00:46:14;6.97;;;6.97;;
80104;SDS011;69865;47.648;19.030;2023-08-12T00:46:47;6.63;;;6.63;;
80104;SDS011;69865;47.648;19.030;2023-08-12T00:47:20;6.87;;;6.87;;
80104;SDS011;69865;47.648;19.030;2023-08-12T00:47:52;6.27;;;6.27;;
80104;SDS011;69865;47.648;19.030;2023-08-12T00:48:25;6.40;;;6.40;;
80104;SDS011;69865;47.648;19.030;2023-08-12T00:48:57;6.30;;;6.30;;
80104;SDS011;69865;47.648;19.030;2023-08-12T00:49:29;5.97;;;5.97;;
80104;SDS011;69865;47.648;19.030;2023-08-12T00:50:04;6.23;;;6.23;;
80104;SDS011;69865;47.648;19.030;2023-08-12T00:50:37;6.67;;;6.67;;
80104;SDS011;69865;47.648;19.030;2023-08-12T00:51:11;6.53;;;6.53;;
80104;SDS011;69865;47.648;19.030;2023-08-12T00:51:44;6.50;;;6.50;;
80104;SDS011;69865;47.648;19.030;2023-08-12T00:52:17;6.10;;;6.10;;
80104;SDS011;69865;47.648;19.030;2023-08-12T00:52:50;6.47;;;6.47;;
80104;SDS011;69865;47.648;19.030;2023-08-12T00:53:22;6.40;;;6.40;;
80104;SDS011;69865;47.648;19.030;2023-08-12T00:53:55;6.70;;;6.70;;
80104;SDS011;69865;47.648;19.030;2023-08-12T00:54:30;6.17;;;6.17;;
80104;SDS011;69865;47.648;19.030;2023-08-12T00:55:02;6.20;;;6.20;;
80104;SDS011;69865;47.648;19.030;2023-08-12T00:55:35;5.93;;;5.93;;
80104;SDS011;69865;47.648;19.030;2023-08-12T00:56:07;6.30;;;6.30;;
80104;SDS011;69865;47.648;19.030;2023-08-12T00:56:41;6.40;;;6.40;;
80104;SDS011;69865;47.648;19.030;2023-08-12T00:57:14;6.37;;;6.37;;
80104;SDS011;69865;47.648;19.030;2023-08-12T00:57:47;6.40;;;6.40;;
80104;SDS011;69865;47.648;19.030;2023-08-12T00:58:19;6.67;;;6.67;;
80104;SDS011;69865;47.648;19.030;2023-08-12T00:58:51;6.23;;;6.23;;
80104;SDS011;69865;47.648;19.030;2023-08-12T00:59:24;6.40;;;6.40;;
80104;SDS011;69865;47.648;19.030;2023-08-12T00:59:57;6.63;;;6.63;;
80104;SDS011;69865;47.648;19.030;2023-08-12T01:00:31;6.70;;;6.70;;
80104;SDS011;69865;47.648;19.030;2023-08-12T01:01:03;6.43;;;6.43;;
80104;SDS011;69865;47.648;19.030;2023-08-12T01:01:37;6.37;;;6.37;;
80104;SDS011;69865;47.648;19.030;2023-08-12T01:02:11;6.37;;;6.37;;
80104;SDS011;69865;47.648;19.030;2023-08-12T01:02:44;6.40;;;6.40;;
80104;SDS011;69865;47.648;19.030;2023-08-12T01:03:17;6.43;;;6.43;;
80104;SDS011;69865;47.648;19.030;2023-08-12T01:03:50;6.03;;;6.03;;
80104;SDS011;69865;47.648;19.030;2023-08-12T01:04:23;6.53;;;6.53;;
80104;SDS011;69865;47.648;19.030;2023-08-12T01:04:55;6.03;;;6.03;;
80104;SDS011;69865;47.648;19.030;2023-08-12T01:05:27;6.97;;;6.97;;
80104;SDS011;69865;47.648;19.030;2023-08-12T01:06:01;6.30;;;6.30;;
80104;SDS011;69865;47.648;19.030;2023-08-12T01:06:34;6.13;;;6.13;;
80104;SDS011;69865;47.648;19.030;2023-08-12T01:07:06;6.70;;;6.70;;
80104;SDS011;69865;47.648;19.030;2023-08-12T01:07:38;7.07;;;7.07;;
80104;SDS011;69865;47.648;19.030;2023-08-12T01:08:10;6.40;;;6.40;;
80104;SDS011;69865;47.648;19.030;2023-08-12T01:08:44;6.43;;;6.43;;
80104;SDS011;69865;47.648;19.030;2023-08-12T01:09:17;6.73;;;6.73;;
80104;SDS011;69865;47.648;19.030;2023-08-12T01:09:50;6.47;;;6.47;;
80104;SDS011;69865;47.648;19.030;2023-08-12T01:10:22;6.77;;;6.77;;
80104;SDS011;69865;47.648;19.030;2023-08-12T01:11:11;6.40;;;6.40;;
80104;SDS011;69865;47.648;19.030;2023-08-12T01:11:49;6.37;;;6.37;;
80104;SDS011;69865;47.648;19.030;2023-08-12T01:12:31;6.47;;;6.47;;
80104;SDS011;69865;47.648;19.030;2023-08-12T01:13:11;6.67;;;6.67;;
80104;SDS011;69865;47.648;19.030;2023-08-12T01:13:52;6.43;;;6.43;;
80104;SDS011;69865;47.648;19.030;2023-08-12T01:14:33;6.27;;;6.27;;
80104;SDS011;69865;47.648;19.030;2023-08-12T01:15:15;6.73;;;6.73;;
80104;SDS011;69865;47.648;19.030;2023-08-12T01:15:52;6.50;;;6.50;;
80104;SDS011;69865;47.648;19.030;2023-08-12T01:16:27;6.57;;;6.57;;
80104;SDS011;69865;47.648;19.030;2023-08-12T01:17:05;5.87;;;5.87;;
80104;SDS011;69865;47.648;19.030;2023-08-12T01:17:41;6.57;;;6.57;;
80104;SDS011;69865;47.648;19.030;2023-08-12T01:18:14;6.70;;;6.70;;
80104;SDS011;69865;47.648;19.030;2023-08-12T01:18:47;7.17;;;7.17;;
80104;SDS011;69865;47.648;19.030;2023-08-12T01:19:22;6.90;;;6.90;;
80104;SDS011;69865;47.648;19.030;2023-08-12T01:20:01;7.13;;;7.13;;
80104;SDS011;69865;47.648;19.030;2023-08-12T01:20:34;6.93;;;6.93;;
80104;SDS011;69865;47.648;19.030;2023-08-12T01:21:07;7.07;;;7.07;;
80104;SDS011;69865;47.648;19.030;2023-08-12T01:21:46;6.83;;;6.83;;
80104;SDS011;69865;47.648;19.030;2023-08-12T01:22:24;6.70;;;6.70;;
80104;SDS011;69865;47.648;19.030;2023-08-12T01:23:07;6.87;;;6.87;;
80104;SDS011;69865;47.648;19.030;2023-08-12T01:23:41;6.97;;;6.97;;
80104;SDS011;69865;47.648;19.030;2023-08-12T01:24:14;6.53;;;6.53;;
80104;SDS011;69865;47.648;19.030;2023-08-12T01:24:46;6.77;;;6.77;;
80104;SDS011;69865;47.648;19.030;2023-08-12T01:25:18;7.33;;;7.33;;
80104;SDS011;69865;47.648;19.030;2023-08-12T01:25:50;7.30;;;7.30;;
80104;SDS011;69865;47.648;19.030;2023-08-12T01:26:22;7.27;;;7.27;;
80104;SDS011;69865;47.648;19.030;2023-08-12T01:26:54;7.33;;;7.33;;
80104;SDS011;69865;47.648;19.030;2023-08-12T01:27:26;6.73;;;6.73;;
80104;SDS011;69865;47.648;19.030;2023-08-12T01:27:58;6.97;;;6.97;;
80104;SDS011;69865;47.648;19.030;2023-08-12T01:28:30;7.27;;;7.27;;
80104;SDS011;69865;47.648;19.030;2023-08-12T01:29:02;7.57;;;7.57;;
80104;SDS011;69865;47.648;19.030;2023-08-12T01:29:36;6.87;;;6.87;;
80104;SDS011;69865;47.648;19.030;2023-08-12T01:30:11;6.33;;;6.33;;
80104;SDS011;69865;47.648;19.030;2023-08-12T01:30:46;7.83;;;7.83;;
80104;SDS011;69865;47.648;19.030;2023-08-12T01:31:26;7.33;;;7.33;;
80104;SDS011;69865;47.648;19.030;2023-08-12T01:32:07;7.03;;;7.03;;
80104;SDS011;69865;47.648;19.030;2023-08-12T01:32:45;7.37;;;7.37;;
80104;SDS011;69865;47.648;19.030;2023-08-12T01:33:28;7.27;;;7.27;;
80104;SDS011;69865;47.648;19.030;2023-08-12T01:34:11;7.20;;;7.20;;
80104;SDS011;69865;47.648;19.030;2023-08-12T01:34:50;7.37;;;7.37;;
80104;SDS011;69865;47.648;19.030;2023-08-12T01:35:30;7.13;;;7.13;;
80104;SDS011;69865;47.648;19.030;2023-08-12T01:36:08;6.97;;;6.97;;
80104;SDS011;69865;47.648;19.030;2023-08-12T01:36:45;7.97;;;7.97;;
80104;SDS011;69865;47.648;19.030;2023-08-12T01:37:21;6.97;;;6.97;;
80104;SDS011;69865;47.648;19.030;2023-08-12T01:37:57;6.97;;;6.97;;
80104;SDS011;69865;47.648;19.030;2023-08-12T01:38:35;7.23;;;7.23;;
80104;SDS011;69865;47.648;19.030;2023-08-12T01:39:11;7.40;;;7.40;;
80104;SDS011;69865;47.648;19.030;2023-08-12T01:39:43;7.07;;;7.07;;
80104;SDS011;69865;47.648;19.030;2023-08-12T01:40:18;6.80;;;6.80;;
80104;SDS011;69865;47.648;19.030;2023-08-12T01:40:51;6.83;;;6.83;;
80104;SDS011;69865;47.648;19.030;2023-08-12T01:41:25;7.00;;;7.00;;
80104;SDS011;69865;47.648;19.030;2023-08-12T01:41:57;7.03;;;7.03;;
80104;SDS011;69865;47.648;19.030;2023-08-12T01:42:30;6.83;;;6.83;;
80104;SDS011;69865;47.648;19.030;2023-08-12T01:43:05;6.73;;;6.73;;
80104;SDS011;69865;47.648;19.030;2023-08-12T01:43:37;7.27;;;7.27;;
80104;SDS011;69865;47.648;19.030;2023-08-12T01:44:10;7.33;;;7.33;;
80104;SDS011;69865;47.648;19.030;2023-08-12T01:44:43;7.43;;;7.43;;
80104;SDS011;69865;47.648;19.030;2023-08-12T01:45:15;7.37;;;7.37;;
80104;SDS011;69865;47.648;19.030;2023-08-12T01:45:49;8.03;;;8.03;;
80104;SDS011;69865;47.648;19.030;2023-08-12T01:46:21;7.90;;;7.90;;
80104;SDS011;69865;47.648;19.030;2023-08-12T01:46:54;7.07;;;7.07;;
80104;SDS011;69865;47.648;19.030;2023-08-12T01:47:26;7.30;;;7.30;;
80104;SDS011;69865;47.648;19.030;2023-08-12T01:47:58;7.17;;;7.17;;
80104;SDS011;69865;47.648;19.030;2023-08-12T01:48:30;7.20;;;7.20;;
80104;SDS011;69865;47.648;19.030;2023-08-12T01:49:03;6.80;;;6.80;;
80104;SDS011;69865;47.648;19.030;2023-08-12T01:49:35;6.70;;;6.70;;
80104;SDS011;69865;47.648;19.030;2023-08-12T01:50:07;7.10;;;7.10;;
80104;SDS011;69865;47.648;19.030;2023-08-12T01:50:40;7.03;;;7.03;;
80104;SDS011;69865;47.648;19.030;2023-08-12T01:51:12;7.27;;;7.27;;
80104;SDS011;69865;47.648;19.030;2023-08-12T01:51:44;7.37;;;7.37;;
80104;SDS011;69865;47.648;19.030;2023-08-12T01:52:16;7.77;;;7.77;;
80104;SDS011;69865;47.648;19.030;2023-08-12T01:52:48;7.87;;;7.87;;
80104;SDS011;69865;47.648;19.030;2023-08-12T01:53:20;6.90;;;6.90;;
80104;SDS011;69865;47.648;19.030;2023-08-12T01:53:54;7.07;;;7.07;;
80104;SDS011;69865;47.648;19.030;2023-08-12T01:54:26;7.80;;;7.80;;
80104;SDS011;69865;47.648;19.030;2023-08-12T01:54:58;7.50;;;7.50;;
80104;SDS011;69865;47.648;19.030;2023-08-12T01:55:30;7.03;;;7.03;;
80104;SDS011;69865;47.648;19.030;2023-08-12T01:56:02;7.50;;;7.50;;
80104;SDS011;69865;47.648;19.030;2023-08-12T01:56:35;6.93;;;6.93;;
80104;SDS011;69865;47.648;19.030;2023-08-12T01:57:07;6.47;;;6.47;;
80104;SDS011;69865;47.648;19.030;2023-08-12T01:57:39;6.77;;;6.77;;
80104;SDS011;69865;47.648;19.030;2023-08-12T01:58:11;7.60;;;7.60;;
80104;SDS011;69865;47.648;19.030;2023-08-12T01:58:43;7.37;;;7.37;;
80104;SDS011;69865;47.648;19.030;2023-08-12T01:59:15;6.83;;;6.83;;
80104;SDS011;69865;47.648;19.030;2023-08-12T01:59:47;6.83;;;6.83;;
80104;SDS011;69865;47.648;19.030;2023-08-12T02:00:20;7.13;;;7.13;;
80104;SDS011;69865;47.648;19.030;2023-08-12T02:00:52;7.03;;;7.03;;
80104;SDS011;69865;47.648;19.030;2023-08-12T02:01:24;6.93;;;6.93;;
80104;SDS011;69865;47.648;19.030;2023-08-12T02:01:56;6.60;;;6.60;;
80104;SDS011;69865;47.648;19.030;2023-08-12T02:02:28;6.93;;;6.93;;
80104;SDS011;69865;47.648;19.030;2023-08-12T02:03:00;6.87;;;6.87;;
80104;SDS011;69865;47.648;19.030;2023-08-12T02:03:32;7.57;;;7.57;;
80104;SDS011;69865;47.648;19.030;2023-08-12T02:04:05;7.33;;;7.33;;
80104;SDS011;69865;47.648;19.030;2023-08-12T02:04:37;6.93;;;6.93;;
80104;SDS011;69865;47.648;19.030;2023-08-12T02:05:10;6.83;;;6.83;;
80104;SDS011;69865;47.648;19.030;2023-08-12T02:05:42;7.37;;;7.37;;
80104;SDS011;69865;47.648;19.030;2023-08-12T02:06:14;6.97;;;6.97;;
80104;SDS011;69865;47.648;19.030;2023-08-12T02:06:46;6.40;;;6.40;;
80104;SDS011;69865;47.648;19.030;2023-08-12T02:07:18;7.10;;;7.10;;
80104;SDS011;69865;47.648;19.030;2023-08-12T02:07:50;7.20;;;7.20;;
80104;SDS011;69865;47.648;19.030;2023-08-12T02:08:22;7.27;;;7.27;;
80104;SDS011;69865;47.648;19.030;2023-08-12T02:08:56;6.87;;;6.87;;
80104;SDS011;69865;47.648;19.030;2023-08-12T02:09:28;6.80;;;6.80;;
80104;SDS011;69865;47.648;19.030;2023-08-12T02:10:00;6.90;;;6.90;;
80104;SDS011;69865;47.648;19.030;2023-08-12T02:10:32;7.33;;;7.33;;
80104;SDS011;69865;47.648;19.030;2023-08-12T02:11:04;7.30;;;7.30;;
80104;SDS011;69865;47.648;19.030;2023-08-12T02:11:36;7.33;;;7.33;;
80104;SDS011;69865;47.648;19.030;2023-08-12T02:12:08;7.07;;;7.07;;
80104;SDS011;69865;47.648;19.030;2023-08-12T02:12:41;6.97;;;6.97;;
80104;SDS011;69865;47.648;19.030;2023-08-12T02:13:13;6.87;;;6.87;;
80104;SDS011;69865;47.648;19.030;2023-08-12T02:13:45;7.37;;;7.37;;
80104;SDS011;69865;47.648;19.030;2023-08-12T02:14:17;7.33;;;7.33;;
80104;SDS011;69865;47.648;19.030;2023-08-12T02:14:49;7.27;;;7.27;;
80104;SDS011;69865;47.648;19.030;2023-08-12T02:15:21;7.50;;;7.50;;
80104;SDS011;69865;47.648;19.030;2023-08-12T02:15:53;7.00;;;7.00;;
80104;SDS011;69865;47.648;19.030;2023-08-12T02:16:25;7.03;;;7.03;;
80104;SDS011;69865;47.648;19.030;2023-08-12T02:16:57;7.47;;;7.47;;
80104;SDS011;69865;47.648;19.030;2023-08-12T02:17:29;7.30;;;7.30;;
80104;SDS011;69865;47.648;19.030;2023-08-12T02:18:01;7.47;;;7.47;;
80104;SDS011;69865;47.648;19.030;2023-08-12T02:18:34;7.03;;;7.03;;
80104;SDS011;69865;47.648;19.030;2023-08-12T02:19:06;7.13;;;7.13;;
80104;SDS011;69865;47.648;19.030;2023-08-12T02:19:38;7.73;;;7.73;;
80104;SDS011;69865;47.648;19.030;2023-08-12T02:20:10;7.33;;;7.33;;
80104;SDS011;69865;47.648;19.030;2023-08-12T02:20:42;6.77;;;6.77;;
80104;SDS011;69865;47.648;19.030;2023-08-12T02:21:14;6.53;;;6.53;;
80104;SDS011;69865;47.648;19.030;2023-08-12T02:21:47;6.90;;;6.90;;
80104;SDS011;69865;47.648;19.030;2023-08-12T02:22:19;7.20;;;7.20;;
80104;SDS011;69865;47.648;19.030;2023-08-12T02:22:51;7.57;;;7.57;;
80104;SDS011;69865;47.648;19.030;2023-08-12T02:23:23;7.67;;;7.67;;
80104;SDS011;69865;47.648;19.030;2023-08-12T02:23:56;7.20;;;7.20;;
80104;SDS011;69865;47.648;19.030;2023-08-12T02:24:29;7.30;;;7.30;;
80104;SDS011;69865;47.648;19.030;2023-08-12T02:25:01;7.50;;;7.50;;
80104;SDS011;69865;47.648;19.030;2023-08-12T02:25:33;7.23;;;7.23;;
80104;SDS011;69865;47.648;19.030;2023-08-12T02:26:05;6.60;;;6.60;;
80104;SDS011;69865;47.648;19.030;2023-08-12T02:26:37;6.70;;;6.70;;
80104;SDS011;69865;47.648;19.030;2023-08-12T02:27:09;6.90;;;6.90;;
80104;SDS011;69865;47.648;19.030;2023-08-12T02:27:42;6.73;;;6.73;;
80104;SDS011;69865;47.648;19.030;2023-08-12T02:28:14;6.87;;;6.87;;
80104;SDS011;69865;47.648;19.030;2023-08-12T02:28:46;6.83;;;6.83;;
80104;SDS011;69865;47.648;19.030;2023-08-12T02:29:18;7.43;;;7.43;;
80104;SDS011;69865;47.648;19.030;2023-08-12T02:29:50;7.90;;;7.90;;
80104;SDS011;69865;47.648;19.030;2023-08-12T02:30:22;8.50;;;8.50;;
80104;SDS011;69865;47.648;19.030;2023-08-12T02:30:54;8.83;;;8.83;;
80104;SDS011;69865;47.648;19.030;2023-08-12T02:31:26;8.40;;;8.40;;
80104;SDS011;69865;47.648;19.030;2023-08-12T02:31:58;8.60;;;8.60;;
80104;SDS011;69865;47.648;19.030;2023-08-12T02:32:31;8.37;;;8.37;;
80104;SDS011;69865;47.648;19.030;2023-08-12T02:33:03;7.80;;;7.80;;
80104;SDS011;69865;47.648;19.030;2023-08-12T02:33:36;8.17;;;8.17;;
80104;SDS011;69865;47.648;19.030;2023-08-12T02:34:08;8.73;;;8.73;;
80104;SDS011;69865;47.648;19.030;2023-08-12T02:34:40;8.10;;;8.10;;
80104;SDS011;69865;47.648;19.030;2023-08-12T02:35:12;8.17;;;8.17;;
80104;SDS011;69865;47.648;19.030;2023-08-12T02:35:44;8.27;;;8.27;;
80104;SDS011;69865;47.648;19.030;2023-08-12T02:36:16;8.00;;;8.00;;
80104;SDS011;69865;47.648;19.030;2023-08-12T02:36:48;7.47;;;7.47;;
80104;SDS011;69865;47.648;19.030;2023-08-12T02:37:20;7.57;;;7.57;;
80104;SDS011;69865;47.648;19.030;2023-08-12T02:37:52;7.10;;;7.10;;
80104;SDS011;69865;47.648;19.030;2023-08-12T02:38:24;6.70;;;6.70;;
80104;SDS011;69865;47.648;19.030;2023-08-12T02:38:58;7.43;;;7.43;;
80104;SDS011;69865;47.648;19.030;2023-08-12T02:39:30;7.57;;;7.57;;
80104;SDS011;69865;47.648;19.030;2023-08-12T02:40:02;7.03;;;7.03;;
80104;SDS011;69865;47.648;19.030;2023-08-12T02:40:35;7.00;;;7.00;;
80104;SDS011;69865;47.648;19.030;2023-08-12T02:41:07;6.83;;;6.83;;
80104;SDS011;69865;47.648;19.030;2023-08-12T02:41:39;6.40;;;6.40;;
80104;SDS011;69865;47.648;19.030;2023-08-12T02:42:11;6.57;;;6.57;;
80104;SDS011;69865;47.648;19.030;2023-08-12T02:42:43;6.40;;;6.40;;
80104;SDS011;69865;47.648;19.030;2023-08-12T02:43:15;6.77;;;6.77;;
80104;SDS011;69865;47.648;19.030;2023-08-12T02:43:48;6.77;;;6.77;;
80104;SDS011;69865;47.648;19.030;2023-08-12T02:44:20;6.93;;;6.93;;
80104;SDS011;69865;47.648;19.030;2023-08-12T02:44:52;7.43;;;7.43;;
80104;SDS011;69865;47.648;19.030;2023-08-12T02:45:24;7.40;;;7.40;;
80104;SDS011;69865;47.648;19.030;2023-08-12T02:45:56;6.73;;;6.73;;
80104;SDS011;69865;47.648;19.030;2023-08-12T02:46:28;6.87;;;6.87;;
80104;SDS011;69865;47.648;19.030;2023-08-12T02:47:00;7.00;;;7.00;;
80104;SDS011;69865;47.648;19.030;2023-08-12T02:47:32;7.27;;;7.27;;
80104;SDS011;69865;47.648;19.030;2023-08-12T02:48:05;6.70;;;6.70;;
80104;SDS011;69865;47.648;19.030;2023-08-12T02:48:37;6.97;;;6.97;;
80104;SDS011;69865;47.648;19.030;2023-08-12T02:49:09;7.17;;;7.17;;
80104;SDS011;69865;47.648;19.030;2023-08-12T02:49:42;6.83;;;6.83;;
80104;SDS011;69865;47.648;19.030;2023-08-12T02:50:14;6.63;;;6.63;;
80104;SDS011;69865;47.648;19.030;2023-08-12T02:50:46;7.17;;;7.17;;
80104;SDS011;69865;47.648;19.030;2023-08-12T02:51:19;6.97;;;6.97;;
80104;SDS011;69865;47.648;19.030;2023-08-12T02:51:54;7.03;;;7.03;;
80104;SDS011;69865;47.648;19.030;2023-08-12T02:52:26;6.80;;;6.80;;
80104;SDS011;69865;47.648;19.030;2023-08-12T02:52:58;6.60;;;6.60;;
80104;SDS011;69865;47.648;19.030;2023-08-12T02:53:30;6.43;;;6.43;;
80104;SDS011;69865;47.648;19.030;2023-08-12T02:54:03;6.73;;;6.73;;
80104;SDS011;69865;47.648;19.030;2023-08-12T02:54:36;6.73;;;6.73;;
80104;SDS011;69865;47.648;19.030;2023-08-12T02:55:08;6.80;;;6.80;;
80104;SDS011;69865;47.648;19.030;2023-08-12T02:55:40;6.50;;;6.50;;
80104;SDS011;69865;47.648;19.030;2023-08-12T02:56:12;6.90;;;6.90;;
80104;SDS011;69865;47.648;19.030;2023-08-12T02:56:44;6.93;;;6.93;;
80104;SDS011;69865;47.648;19.030;2023-08-12T02:57:16;7.30;;;7.30;;
80104;SDS011;69865;47.648;19.030;2023-08-12T02:57:48;7.57;;;7.57;;
80104;SDS011;69865;47.648;19.030;2023-08-12T02:58:20;7.13;;;7.13;;
80104;SDS011;69865;47.648;19.030;2023-08-12T02:58:53;7.77;;;7.77;;
80104;SDS011;69865;47.648;19.030;2023-08-12T02:59:25;7.17;;;7.17;;
80104;SDS011;69865;47.648;19.030;2023-08-12T02:59:57;7.13;;;7.13;;
80104;SDS011;69865;47.648;19.030;2023-08-12T03:00:29;7.33;;;7.33;;
80104;SDS011;69865;47.648;19.030;2023-08-12T03:01:02;6.60;;;6.60;;
80104;SDS011;69865;47.648;19.030;2023-08-12T03:01:34;7.43;;;7.43;;
80104;SDS011;69865;47.648;19.030;2023-08-12T03:02:06;7.47;;;7.47;;
80104;SDS011;69865;47.648;19.030;2023-08-12T03:02:41;7.17;;;7.17;;
80104;SDS011;69865;47.648;19.030;2023-08-12T03:03:14;6.57;;;6.57;;
80104;SDS011;69865;47.648;19.030;2023-08-12T03:03:46;7.03;;;7.03;;
80104;SDS011;69865;47.648;19.030;2023-08-12T03:04:18;7.57;;;7.57;;
80104;SDS011;69865;47.648;19.030;2023-08-12T03:04:50;7.50;;;7.50;;
80104;SDS011;69865;47.648;19.030;2023-08-12T03:05:22;7.47;;;7.47;;
80104;SDS011;69865;47.648;19.030;2023-08-12T03:05:54;7.93;;;7.93;;
80104;SDS011;69865;47.648;19.030;2023-08-12T03:06:27;7.97;;;7.97;;
80104;SDS011;69865;47.648;19.030;2023-08-12T03:06:59;7.67;;;7.67;;
80104;SDS011;69865;47.648;19.030;2023-08-12T03:07:31;7.63;;;7.63;;
80104;SDS011;69865;47.648;19.030;2023-08-12T03:08:03;7.27;;;7.27;;
80104;SDS011;69865;47.648;19.030;2023-08-12T03:08:36;6.83;;;6.83;;
80104;SDS011;69865;47.648;19.030;2023-08-12T03:09:09;7.60;;;7.60;;
80104;SDS011;69865;47.648;19.030;2023-08-12T03:09:41;7.70;;;7.70;;
80104;SDS011;69865;47.648;19.030;2023-08-12T03:10:13;7.30;;;7.30;;
80104;SDS011;69865;47.648;19.030;2023-08-12T03:10:45;7.60;;;7.60;;
80104;SDS011;69865;47.648;19.030;2023-08-12T03:11:17;7.17;;;7.17;;
80104;SDS011;69865;47.648;19.030;2023-08-12T03:11:49;7.00;;;7.00;;
80104;SDS011;69865;47.648;19.030;2023-08-12T03:12:21;7.43;;;7.43;;
80104;SDS011;69865;47.648;19.030;2023-08-12T03:12:54;7.67;;;7.67;;
80104;SDS011;69865;47.648;19.030;2023-08-12T03:13:26;7.70;;;7.70;;
80104;SDS011;69865;47.648;19.030;2023-08-12T03:13:58;7.90;;;7.90;;
80104;SDS011;69865;47.648;19.030;2023-08-12T03:14:30;7.47;;;7.47;;
80104;SDS011;69865;47.648;19.030;2023-08-12T03:15:03;7.00;;;7.00;;